This is the latest recevied weather packets stored in our database for station/object K1AWR. If no packets are shown the sender has not sent any weather packets the latest 10 day(s).
| Time | Temp. | Humidity | Pressure | Rain* | Wind** | Luminosity | Snow |
|---|---|---|---|---|---|---|---|
| 1778124633 | 11.67° C | 88% | 1009.2 hPa | 0 mm | - | 0 W/m² | - |
| 1778124330 | 11.67° C | 88% | 1009.1 hPa | 0 mm | - | 0 W/m² | - |
| 1778124026 | 11.67° C | 89% | 1009 hPa | 0 mm | - | 0 W/m² | - |
| 1778123722 | 12.22° C | 87% | 1009 hPa | 0 mm | - | 0 W/m² | - |
| 1778123420 | 12.22° C | 87% | 1009.1 hPa | 0 mm | - | 0 W/m² | - |
| 1778123116 | 12.22° C | 87% | 1008.8 hPa | 0 mm | - | 0 W/m² | - |
| 1778122814 | 12.22° C | 87% | 1008.7 hPa | 1.27 mm | - | 0 W/m² | - |
| 1778122511 | 12.22° C | 87% | 1008.8 hPa | 1.27 mm | - | 0 W/m² | - |
| 1778122209 | 12.22° C | 89% | 1008.5 hPa | 0 mm | - | 0 W/m² | - |
| 1778121906 | 12.22° C | 89% | 1008.5 hPa | 0 mm | - | 0 W/m² | - |
| 1778121602 | 12.22° C | 89% | 1008.5 hPa | 0 mm | - | 0 W/m² | - |
| 1778121299 | 12.22° C | 89% | 1008.4 hPa | 0 mm | - | 0 W/m² | - |
| 1778120996 | 12.78° C | 88% | 1008.4 hPa | 0 mm | - | 0 W/m² | - |
| 1778120693 | 12.78° C | 88% | 1008.5 hPa | 0 mm | - | 0 W/m² | - |
| 1778120388 | 12.78° C | 88% | 1008.5 hPa | 0 mm | - | 0 W/m² | - |
| 1778120084 | 12.78° C | 88% | 1008.6 hPa | 1.78 mm | - | 0 W/m² | - |
| 1778119781 | 12.78° C | 88% | 1008.7 hPa | 3.56 mm | - | 0 W/m² | - |
| 1778119478 | 13.33° C | 87% | 1008.8 hPa | 1.78 mm | - | 0 W/m² | - |
| 1778119175 | 13.33° C | 86% | 1008.6 hPa | 0 mm | - | 0 W/m² | - |
| 1778118874 | 13.33° C | 87% | 1008.5 hPa | 0 mm | - | 0 W/m² | - |
| 1778118570 | 13.89° C | 89% | 1008.4 hPa | 0 mm | - | 0 W/m² | - |
| 1778118267 | 13.89° C | 92% | 1008 hPa | 0 mm | - | 0 W/m² | - |
| 1778117963 | 15° C | 94% | 1007.7 hPa | 0 mm | - | 0 W/m² | - |
| 1778117660 | 15° C | 94% | 1007.6 hPa | 0 mm | - | 0 W/m² | - |
| 1778117358 | 15° C | 94% | 1007.6 hPa | 0 mm | - | 0 W/m² | - |
* Rain latest hour (hover to see other rain measurements)
** Current wind speed in m/s (hover to see current wind gust speed)